Newry, United Kingdom
Current Conditions -  °F | °C
As of 12:50 AM on Tuesday 25 Nov 2014 (Local Time) from EGAA Reporting Station
Haze Haze  
Wind Chill: 45°   Ceiling: 2800
Heat Index: 45°   Visibility: 1mi
Dew Point: 45°   Wind: 3mph
Humidity: 100%   Direction: 200°SSW
Pressure: 30.27"   Gusts: NA
Location:  54.18°N, 6.34°W
Report Text: EGAA 250050Z 20003KT 1600 BR FEW002 BKN028 07/07 Q1025
Loading
Personal Weather Stations






























Interactive Weather Map New forecast layout! Learn more

10-Day Weather Forecast

Advertisements
Track Severe Weather on mobile